sensor_id;sensor_type;location;lat;lon;timestamp;P1;durP1;ratioP1;P2;durP2;ratioP2
72924;SDS011;61070;50.794;7.054;2024-01-07T00:00:08;40.05;;;20.75;;
72924;SDS011;61070;50.794;7.054;2024-01-07T00:01:09;44.10;;;21.77;;
72924;SDS011;61070;50.794;7.054;2024-01-07T00:02:10;44.80;;;22.13;;
72924;SDS011;61070;50.794;7.054;2024-01-07T00:03:10;47.58;;;23.73;;
72924;SDS011;61070;50.794;7.054;2024-01-07T00:04:10;43.75;;;21.23;;
72924;SDS011;61070;50.794;7.054;2024-01-07T00:05:11;47.45;;;22.30;;
72924;SDS011;61070;50.794;7.054;2024-01-07T00:06:11;45.58;;;20.83;;
72924;SDS011;61070;50.794;7.054;2024-01-07T00:07:11;52.70;;;24.70;;
72924;SDS011;61070;50.794;7.054;2024-01-07T00:08:11;51.85;;;25.83;;
72924;SDS011;61070;50.794;7.054;2024-01-07T00:09:12;51.53;;;23.17;;
72924;SDS011;61070;50.794;7.054;2024-01-07T00:10:15;53.65;;;24.30;;
72924;SDS011;61070;50.794;7.054;2024-01-07T00:11:15;49.13;;;24.15;;
72924;SDS011;61070;50.794;7.054;2024-01-07T00:12:15;45.92;;;22.27;;
72924;SDS011;61070;50.794;7.054;2024-01-07T00:13:17;52.20;;;24.38;;
72924;SDS011;61070;50.794;7.054;2024-01-07T00:14:17;48.17;;;23.85;;
72924;SDS011;61070;50.794;7.054;2024-01-07T00:15:17;49.33;;;23.48;;
72924;SDS011;61070;50.794;7.054;2024-01-07T00:16:18;45.67;;;22.65;;
72924;SDS011;61070;50.794;7.054;2024-01-07T00:17:18;47.20;;;22.85;;
72924;SDS011;61070;50.794;7.054;2024-01-07T00:18:18;50.40;;;24.10;;
72924;SDS011;61070;50.794;7.054;2024-01-07T00:19:18;50.92;;;24.85;;
72924;SDS011;61070;50.794;7.054;2024-01-07T00:20:19;50.13;;;24.23;;
72924;SDS011;61070;50.794;7.054;2024-01-07T00:21:19;48.25;;;23.73;;
72924;SDS011;61070;50.794;7.054;2024-01-07T00:22:20;52.38;;;25.73;;
72924;SDS011;61070;50.794;7.054;2024-01-07T00:23:20;49.85;;;25.02;;
72924;SDS011;61070;50.794;7.054;2024-01-07T00:24:20;51.90;;;24.73;;
72924;SDS011;61070;50.794;7.054;2024-01-07T00:25:21;49.72;;;22.15;;
72924;SDS011;61070;50.794;7.054;2024-01-07T00:26:21;48.65;;;23.13;;
72924;SDS011;61070;50.794;7.054;2024-01-07T00:27:22;48.33;;;23.77;;
72924;SDS011;61070;50.794;7.054;2024-01-07T00:28:22;50.65;;;24.00;;
72924;SDS011;61070;50.794;7.054;2024-01-07T00:29:22;49.00;;;24.55;;
72924;SDS011;61070;50.794;7.054;2024-01-07T00:30:22;55.35;;;24.58;;
72924;SDS011;61070;50.794;7.054;2024-01-07T00:31:23;42.47;;;20.42;;
72924;SDS011;61070;50.794;7.054;2024-01-07T00:32:23;43.40;;;21.52;;
72924;SDS011;61070;50.794;7.054;2024-01-07T00:33:23;46.47;;;21.67;;
72924;SDS011;61070;50.794;7.054;2024-01-07T00:34:24;41.70;;;20.40;;
72924;SDS011;61070;50.794;7.054;2024-01-07T00:35:24;42.60;;;22.38;;
72924;SDS011;61070;50.794;7.054;2024-01-07T00:36:24;40.33;;;20.02;;
72924;SDS011;61070;50.794;7.054;2024-01-07T00:37:24;47.38;;;20.58;;
72924;SDS011;61070;50.794;7.054;2024-01-07T00:38:25;46.78;;;22.42;;
72924;SDS011;61070;50.794;7.054;2024-01-07T00:39:25;40.63;;;19.70;;
72924;SDS011;61070;50.794;7.054;2024-01-07T00:40:25;36.92;;;18.65;;
72924;SDS011;61070;50.794;7.054;2024-01-07T00:41:26;41.33;;;20.42;;
72924;SDS011;61070;50.794;7.054;2024-01-07T00:42:26;42.10;;;21.10;;
72924;SDS011;61070;50.794;7.054;2024-01-07T00:43:27;39.65;;;19.30;;
72924;SDS011;61070;50.794;7.054;2024-01-07T00:44:27;42.25;;;20.45;;
72924;SDS011;61070;50.794;7.054;2024-01-07T00:45:27;40.72;;;18.83;;
72924;SDS011;61070;50.794;7.054;2024-01-07T00:46:27;36.90;;;18.58;;
72924;SDS011;61070;50.794;7.054;2024-01-07T00:47:28;39.83;;;20.15;;
72924;SDS011;61070;50.794;7.054;2024-01-07T00:48:28;48.08;;;21.85;;
72924;SDS011;61070;50.794;7.054;2024-01-07T00:49:28;40.42;;;20.17;;
72924;SDS011;61070;50.794;7.054;2024-01-07T00:50:28;49.85;;;22.70;;
72924;SDS011;61070;50.794;7.054;2024-01-07T00:51:29;39.75;;;19.25;;
72924;SDS011;61070;50.794;7.054;2024-01-07T00:52:29;34.45;;;18.38;;
72924;SDS011;61070;50.794;7.054;2024-01-07T00:53:29;40.58;;;20.08;;
72924;SDS011;61070;50.794;7.054;2024-01-07T00:54:29;46.22;;;20.60;;
72924;SDS011;61070;50.794;7.054;2024-01-07T00:55:30;43.60;;;20.40;;
72924;SDS011;61070;50.794;7.054;2024-01-07T00:56:30;38.10;;;18.45;;
72924;SDS011;61070;50.794;7.054;2024-01-07T00:57:30;41.28;;;19.48;;
72924;SDS011;61070;50.794;7.054;2024-01-07T00:58:31;41.83;;;21.10;;
72924;SDS011;61070;50.794;7.054;2024-01-07T00:59:31;41.72;;;19.90;;
72924;SDS011;61070;50.794;7.054;2024-01-07T01:00:31;39.60;;;19.52;;
72924;SDS011;61070;50.794;7.054;2024-01-07T01:01:31;41.63;;;20.63;;
72924;SDS011;61070;50.794;7.054;2024-01-07T01:02:32;45.50;;;21.52;;
72924;SDS011;61070;50.794;7.054;2024-01-07T01:03:32;41.47;;;19.85;;
72924;SDS011;61070;50.794;7.054;2024-01-07T01:04:32;42.05;;;19.70;;
72924;SDS011;61070;50.794;7.054;2024-01-07T01:05:33;40.13;;;19.33;;
72924;SDS011;61070;50.794;7.054;2024-01-07T01:06:33;36.42;;;18.90;;
72924;SDS011;61070;50.794;7.054;2024-01-07T01:07:34;38.95;;;18.88;;
72924;SDS011;61070;50.794;7.054;2024-01-07T01:08:34;37.70;;;18.25;;
72924;SDS011;61070;50.794;7.054;2024-01-07T01:09:34;37.15;;;17.50;;
72924;SDS011;61070;50.794;7.054;2024-01-07T01:10:34;39.90;;;17.40;;
72924;SDS011;61070;50.794;7.054;2024-01-07T01:11:35;32.47;;;17.13;;
72924;SDS011;61070;50.794;7.054;2024-01-07T01:12:35;34.83;;;18.38;;
72924;SDS011;61070;50.794;7.054;2024-01-07T01:13:35;36.90;;;18.30;;
72924;SDS011;61070;50.794;7.054;2024-01-07T01:14:36;38.20;;;17.60;;
72924;SDS011;61070;50.794;7.054;2024-01-07T01:15:36;33.50;;;17.33;;
72924;SDS011;61070;50.794;7.054;2024-01-07T01:16:36;33.20;;;17.00;;
72924;SDS011;61070;50.794;7.054;2024-01-07T01:17:36;34.33;;;17.63;;
72924;SDS011;61070;50.794;7.054;2024-01-07T01:18:37;39.22;;;17.00;;
72924;SDS011;61070;50.794;7.054;2024-01-07T01:19:37;38.38;;;17.13;;
72924;SDS011;61070;50.794;7.054;2024-01-07T01:20:37;32.28;;;16.35;;
72924;SDS011;61070;50.794;7.054;2024-01-07T01:21:37;33.88;;;17.13;;
72924;SDS011;61070;50.794;7.054;2024-01-07T01:22:38;40.88;;;18.45;;
72924;SDS011;61070;50.794;7.054;2024-01-07T01:23:38;37.10;;;17.30;;
72924;SDS011;61070;50.794;7.054;2024-01-07T01:24:38;41.15;;;18.95;;
72924;SDS011;61070;50.794;7.054;2024-01-07T01:25:38;36.17;;;18.45;;
72924;SDS011;61070;50.794;7.054;2024-01-07T01:26:39;40.25;;;18.52;;
72924;SDS011;61070;50.794;7.054;2024-01-07T01:27:40;36.47;;;18.77;;
72924;SDS011;61070;50.794;7.054;2024-01-07T01:28:40;42.72;;;19.92;;
72924;SDS011;61070;50.794;7.054;2024-01-07T01:29:41;40.80;;;19.90;;
72924;SDS011;61070;50.794;7.054;2024-01-07T01:30:41;41.47;;;19.15;;
72924;SDS011;61070;50.794;7.054;2024-01-07T01:31:41;40.65;;;18.83;;
72924;SDS011;61070;50.794;7.054;2024-01-07T01:32:41;37.55;;;18.30;;
72924;SDS011;61070;50.794;7.054;2024-01-07T01:33:42;38.17;;;17.67;;
72924;SDS011;61070;50.794;7.054;2024-01-07T01:34:42;40.22;;;18.50;;
72924;SDS011;61070;50.794;7.054;2024-01-07T01:35:42;40.45;;;19.38;;
72924;SDS011;61070;50.794;7.054;2024-01-07T01:36:43;39.13;;;18.98;;
72924;SDS011;61070;50.794;7.054;2024-01-07T01:37:43;36.90;;;19.20;;
72924;SDS011;61070;50.794;7.054;2024-01-07T01:38:44;42.95;;;20.13;;
72924;SDS011;61070;50.794;7.054;2024-01-07T01:39:44;37.03;;;19.98;;
72924;SDS011;61070;50.794;7.054;2024-01-07T01:40:50;41.70;;;20.13;;
72924;SDS011;61070;50.794;7.054;2024-01-07T01:41:51;42.60;;;20.45;;
72924;SDS011;61070;50.794;7.054;2024-01-07T01:42:51;39.03;;;19.92;;
72924;SDS011;61070;50.794;7.054;2024-01-07T01:43:55;40.60;;;20.27;;
72924;SDS011;61070;50.794;7.054;2024-01-07T01:44:57;45.35;;;20.45;;
72924;SDS011;61070;50.794;7.054;2024-01-07T01:46:01;40.97;;;20.08;;
72924;SDS011;61070;50.794;7.054;2024-01-07T01:47:02;41.13;;;19.77;;
72924;SDS011;61070;50.794;7.054;2024-01-07T01:48:03;42.65;;;20.73;;
72924;SDS011;61070;50.794;7.054;2024-01-07T01:49:03;42.45;;;20.58;;
72924;SDS011;61070;50.794;7.054;2024-01-07T01:50:04;36.95;;;17.98;;
72924;SDS011;61070;50.794;7.054;2024-01-07T01:51:05;39.25;;;19.10;;
72924;SDS011;61070;50.794;7.054;2024-01-07T01:52:05;39.13;;;17.95;;
72924;SDS011;61070;50.794;7.054;2024-01-07T01:53:06;40.53;;;18.75;;
72924;SDS011;61070;50.794;7.054;2024-01-07T01:54:06;37.50;;;17.77;;
72924;SDS011;61070;50.794;7.054;2024-01-07T01:55:07;37.90;;;18.55;;
72924;SDS011;61070;50.794;7.054;2024-01-07T01:56:07;39.15;;;18.20;;
72924;SDS011;61070;50.794;7.054;2024-01-07T01:57:08;36.47;;;18.08;;
72924;SDS011;61070;50.794;7.054;2024-01-07T01:58:13;38.00;;;19.42;;
72924;SDS011;61070;50.794;7.054;2024-01-07T01:59:15;35.47;;;18.20;;
72924;SDS011;61070;50.794;7.054;2024-01-07T02:00:16;34.72;;;16.80;;
72924;SDS011;61070;50.794;7.054;2024-01-07T02:01:16;32.38;;;17.17;;
72924;SDS011;61070;50.794;7.054;2024-01-07T02:02:17;36.92;;;17.90;;
72924;SDS011;61070;50.794;7.054;2024-01-07T02:03:18;31.17;;;17.15;;
72924;SDS011;61070;50.794;7.054;2024-01-07T02:04:18;29.73;;;14.95;;
72924;SDS011;61070;50.794;7.054;2024-01-07T02:05:18;27.95;;;15.43;;
72924;SDS011;61070;50.794;7.054;2024-01-07T02:06:19;28.92;;;15.35;;
72924;SDS011;61070;50.794;7.054;2024-01-07T02:07:21;29.60;;;14.25;;
72924;SDS011;61070;50.794;7.054;2024-01-07T02:08:21;29.30;;;15.77;;
72924;SDS011;61070;50.794;7.054;2024-01-07T02:09:21;30.58;;;14.85;;
72924;SDS011;61070;50.794;7.054;2024-01-07T02:10:22;27.58;;;14.35;;
72924;SDS011;61070;50.794;7.054;2024-01-07T02:11:22;31.40;;;16.20;;
72924;SDS011;61070;50.794;7.054;2024-01-07T02:12:23;28.50;;;14.98;;
72924;SDS011;61070;50.794;7.054;2024-01-07T02:13:23;27.15;;;14.35;;
72924;SDS011;61070;50.794;7.054;2024-01-07T02:14:23;27.73;;;14.50;;
72924;SDS011;61070;50.794;7.054;2024-01-07T02:15:23;27.65;;;15.25;;
72924;SDS011;61070;50.794;7.054;2024-01-07T02:16:24;25.38;;;13.30;;
72924;SDS011;61070;50.794;7.054;2024-01-07T02:17:24;26.77;;;14.30;;
72924;SDS011;61070;50.794;7.054;2024-01-07T02:18:24;25.13;;;12.40;;
72924;SDS011;61070;50.794;7.054;2024-01-07T02:19:24;28.27;;;15.05;;
72924;SDS011;61070;50.794;7.054;2024-01-07T02:20:25;25.58;;;13.65;;
72924;SDS011;61070;50.794;7.054;2024-01-07T02:21:25;24.30;;;13.13;;
72924;SDS011;61070;50.794;7.054;2024-01-07T02:22:25;22.85;;;12.85;;
72924;SDS011;61070;50.794;7.054;2024-01-07T02:23:25;25.92;;;13.48;;
72924;SDS011;61070;50.794;7.054;2024-01-07T02:24:26;22.58;;;12.82;;
72924;SDS011;61070;50.794;7.054;2024-01-07T02:25:26;23.23;;;12.73;;
72924;SDS011;61070;50.794;7.054;2024-01-07T02:26:26;26.52;;;12.75;;
72924;SDS011;61070;50.794;7.054;2024-01-07T02:27:27;23.38;;;12.18;;
72924;SDS011;61070;50.794;7.054;2024-01-07T02:28:28;23.38;;;12.77;;
72924;SDS011;61070;50.794;7.054;2024-01-07T02:29:29;24.85;;;13.52;;
72924;SDS011;61070;50.794;7.054;2024-01-07T02:30:29;22.65;;;11.73;;
72924;SDS011;61070;50.794;7.054;2024-01-07T02:31:30;22.60;;;13.57;;
72924;SDS011;61070;50.794;7.054;2024-01-07T02:32:30;23.67;;;12.20;;
72924;SDS011;61070;50.794;7.054;2024-01-07T02:33:34;20.50;;;12.15;;
72924;SDS011;61070;50.794;7.054;2024-01-07T02:34:34;21.80;;;12.43;;
72924;SDS011;61070;50.794;7.054;2024-01-07T02:35:34;24.63;;;12.07;;
72924;SDS011;61070;50.794;7.054;2024-01-07T02:36:35;22.58;;;11.90;;
72924;SDS011;61070;50.794;7.054;2024-01-07T02:37:35;21.33;;;12.23;;
72924;SDS011;61070;50.794;7.054;2024-01-07T02:38:36;23.45;;;11.05;;
72924;SDS011;61070;50.794;7.054;2024-01-07T02:39:36;22.00;;;10.98;;
72924;SDS011;61070;50.794;7.054;2024-01-07T02:40:36;18.75;;;10.63;;
72924;SDS011;61070;50.794;7.054;2024-01-07T02:41:36;20.50;;;11.07;;
72924;SDS011;61070;50.794;7.054;2024-01-07T02:42:37;20.95;;;10.85;;
72924;SDS011;61070;50.794;7.054;2024-01-07T02:43:37;18.75;;;10.32;;
72924;SDS011;61070;50.794;7.054;2024-01-07T02:44:38;19.00;;;10.70;;
72924;SDS011;61070;50.794;7.054;2024-01-07T02:45:38;18.88;;;10.82;;
72924;SDS011;61070;50.794;7.054;2024-01-07T02:46:39;18.30;;;10.07;;
72924;SDS011;61070;50.794;7.054;2024-01-07T02:47:39;18.02;;;10.50;;
72924;SDS011;61070;50.794;7.054;2024-01-07T02:48:39;20.05;;;10.35;;
72924;SDS011;61070;50.794;7.054;2024-01-07T02:49:39;17.67;;;10.07;;
72924;SDS011;61070;50.794;7.054;2024-01-07T02:50:39;19.13;;;10.60;;
72924;SDS011;61070;50.794;7.054;2024-01-07T02:51:41;20.65;;;10.25;;
72924;SDS011;61070;50.794;7.054;2024-01-07T02:52:41;19.27;;;11.10;;
72924;SDS011;61070;50.794;7.054;2024-01-07T02:53:42;20.30;;;10.45;;
72924;SDS011;61070;50.794;7.054;2024-01-07T02:54:42;21.95;;;10.70;;
72924;SDS011;61070;50.794;7.054;2024-01-07T02:55:42;22.08;;;10.85;;
72924;SDS011;61070;50.794;7.054;2024-01-07T02:56:43;22.45;;;12.07;;
72924;SDS011;61070;50.794;7.054;2024-01-07T02:57:43;19.38;;;10.32;;
72924;SDS011;61070;50.794;7.054;2024-01-07T02:58:43;19.27;;;9.50;;
72924;SDS011;61070;50.794;7.054;2024-01-07T02:59:43;19.40;;;10.00;;
72924;SDS011;61070;50.794;7.054;2024-01-07T03:00:44;21.35;;;10.55;;
72924;SDS011;61070;50.794;7.054;2024-01-07T03:01:44;21.27;;;10.30;;
72924;SDS011;61070;50.794;7.054;2024-01-07T03:02:45;20.38;;;10.40;;
72924;SDS011;61070;50.794;7.054;2024-01-07T03:03:45;24.75;;;11.27;;
72924;SDS011;61070;50.794;7.054;2024-01-07T03:04:45;20.08;;;10.70;;
72924;SDS011;61070;50.794;7.054;2024-01-07T03:05:45;22.00;;;10.20;;
72924;SDS011;61070;50.794;7.054;2024-01-07T03:06:46;21.25;;;11.98;;
72924;SDS011;61070;50.794;7.054;2024-01-07T03:07:46;20.52;;;11.30;;
72924;SDS011;61070;50.794;7.054;2024-01-07T03:08:47;24.42;;;12.25;;
72924;SDS011;61070;50.794;7.054;2024-01-07T03:09:48;25.60;;;12.52;;
72924;SDS011;61070;50.794;7.054;2024-01-07T03:10:49;22.48;;;12.27;;
72924;SDS011;61070;50.794;7.054;2024-01-07T03:11:49;22.63;;;11.15;;
72924;SDS011;61070;50.794;7.054;2024-01-07T03:12:50;24.23;;;11.90;;
72924;SDS011;61070;50.794;7.054;2024-01-07T03:13:50;20.42;;;12.55;;
72924;SDS011;61070;50.794;7.054;2024-01-07T03:14:50;25.15;;;13.00;;
72924;SDS011;61070;50.794;7.054;2024-01-07T03:15:50;23.60;;;12.75;;
72924;SDS011;61070;50.794;7.054;2024-01-07T03:16:51;23.02;;;12.45;;
72924;SDS011;61070;50.794;7.054;2024-01-07T03:17:51;25.05;;;13.73;;
72924;SDS011;61070;50.794;7.054;2024-01-07T03:18:51;26.48;;;13.70;;
72924;SDS011;61070;50.794;7.054;2024-01-07T03:19:52;24.30;;;13.07;;
72924;SDS011;61070;50.794;7.054;2024-01-07T03:20:52;30.15;;;14.65;;
72924;SDS011;61070;50.794;7.054;2024-01-07T03:21:52;28.40;;;13.38;;
72924;SDS011;61070;50.794;7.054;2024-01-07T03:22:52;24.27;;;13.30;;
72924;SDS011;61070;50.794;7.054;2024-01-07T03:23:55;28.00;;;14.38;;
72924;SDS011;61070;50.794;7.054;2024-01-07T03:24:55;26.35;;;13.35;;
72924;SDS011;61070;50.794;7.054;2024-01-07T03:25:57;29.67;;;15.65;;
72924;SDS011;61070;50.794;7.054;2024-01-07T03:26:58;27.45;;;14.48;;
72924;SDS011;61070;50.794;7.054;2024-01-07T03:27:58;27.48;;;14.15;;
72924;SDS011;61070;50.794;7.054;2024-01-07T03:28:58;30.88;;;15.48;;
72924;SDS011;61070;50.794;7.054;2024-01-07T03:30:02;28.60;;;14.35;;
72924;SDS011;61070;50.794;7.054;2024-01-07T03:31:04;30.40;;;15.48;;
72924;SDS011;61070;50.794;7.054;2024-01-07T03:32:05;32.83;;;15.23;;
72924;SDS011;61070;50.794;7.054;2024-01-07T03:33:06;30.55;;;15.10;;
72924;SDS011;61070;50.794;7.054;2024-01-07T03:34:06;29.35;;;14.63;;
72924;SDS011;61070;50.794;7.054;2024-01-07T03:35:06;30.02;;;16.33;;
72924;SDS011;61070;50.794;7.054;2024-01-07T03:37:09;35.90;;;16.25;;
72924;SDS011;61070;50.794;7.054;2024-01-07T03:38:10;37.17;;;17.13;;
72924;SDS011;61070;50.794;7.054;2024-01-07T03:39:10;34.35;;;17.63;;
72924;SDS011;61070;50.794;7.054;2024-01-07T03:40:10;36.03;;;17.73;;
72924;SDS011;61070;50.794;7.054;2024-01-07T03:41:18;37.67;;;17.83;;
72924;SDS011;61070;50.794;7.054;2024-01-07T03:42:19;36.65;;;19.17;;
72924;SDS011;61070;50.794;7.054;2024-01-07T03:43:20;35.40;;;18.45;;
72924;SDS011;61070;50.794;7.054;2024-01-07T03:44:20;38.45;;;17.67;;
72924;SDS011;61070;50.794;7.054;2024-01-07T03:45:20;37.47;;;18.65;;
72924;SDS011;61070;50.794;7.054;2024-01-07T03:46:21;39.72;;;19.38;;
72924;SDS011;61070;50.794;7.054;2024-01-07T03:47:21;38.30;;;18.05;;
72924;SDS011;61070;50.794;7.054;2024-01-07T03:48:21;35.38;;;17.73;;
72924;SDS011;61070;50.794;7.054;2024-01-07T03:49:21;37.70;;;18.65;;
72924;SDS011;61070;50.794;7.054;2024-01-07T03:50:22;36.92;;;17.95;;
72924;SDS011;61070;50.794;7.054;2024-01-07T03:51:22;34.40;;;17.55;;
72924;SDS011;61070;50.794;7.054;2024-01-07T03:52:22;38.40;;;18.95;;
72924;SDS011;61070;50.794;7.054;2024-01-07T03:53:23;36.63;;;19.23;;
72924;SDS011;61070;50.794;7.054;2024-01-07T03:54:23;38.05;;;19.02;;
72924;SDS011;61070;50.794;7.054;2024-01-07T03:55:23;33.78;;;17.98;;
72924;SDS011;61070;50.794;7.054;2024-01-07T03:56:24;33.13;;;16.60;;
72924;SDS011;61070;50.794;7.054;2024-01-07T03:57:24;34.03;;;17.42;;
72924;SDS011;61070;50.794;7.054;2024-01-07T03:58:24;36.05;;;17.75;;
72924;SDS011;61070;50.794;7.054;2024-01-07T03:59:24;35.20;;;19.23;;
72924;SDS011;61070;50.794;7.054;2024-01-07T04:00:25;36.40;;;18.38;;
72924;SDS011;61070;50.794;7.054;2024-01-07T04:01:25;34.10;;;17.63;;
72924;SDS011;61070;50.794;7.054;2024-01-07T04:02:26;38.08;;;18.50;;
72924;SDS011;61070;50.794;7.054;2024-01-07T04:03:26;33.42;;;17.58;;
72924;SDS011;61070;50.794;7.054;2024-01-07T04:04:26;34.63;;;18.30;;
72924;SDS011;61070;50.794;7.054;2024-01-07T04:05:27;34.10;;;17.42;;
72924;SDS011;61070;50.794;7.054;2024-01-07T04:06:29;34.83;;;18.00;;
72924;SDS011;61070;50.794;7.054;2024-01-07T04:07:29;37.95;;;18.13;;
72924;SDS011;61070;50.794;7.054;2024-01-07T04:08:29;35.70;;;17.50;;
72924;SDS011;61070;50.794;7.054;2024-01-07T04:09:30;33.47;;;17.80;;
72924;SDS011;61070;50.794;7.054;2024-01-07T04:10:30;38.53;;;18.75;;
72924;SDS011;61070;50.794;7.054;2024-01-07T04:11:30;35.78;;;17.98;;
72924;SDS011;61070;50.794;7.054;2024-01-07T04:12:30;34.08;;;17.98;;
72924;SDS011;61070;50.794;7.054;2024-01-07T04:13:31;31.85;;;17.13;;
72924;SDS011;61070;50.794;7.054;2024-01-07T04:14:31;28.52;;;16.45;;
72924;SDS011;61070;50.794;7.054;2024-01-07T04:15:33;30.73;;;17.00;;
72924;SDS011;61070;50.794;7.054;2024-01-07T04:16:34;31.58;;;17.17;;
72924;SDS011;61070;50.794;7.054;2024-01-07T04:17:34;31.05;;;16.65;;
72924;SDS011;61070;50.794;7.054;2024-01-07T04:18:34;31.65;;;16.88;;
72924;SDS011;61070;50.794;7.054;2024-01-07T04:19:36;32.85;;;17.40;;
72924;SDS011;61070;50.794;7.054;2024-01-07T04:20:38;31.77;;;16.00;;
72924;SDS011;61070;50.794;7.054;2024-01-07T04:21:38;30.70;;;16.58;;
72924;SDS011;61070;50.794;7.054;2024-01-07T04:22:38;32.47;;;16.73;;
72924;SDS011;61070;50.794;7.054;2024-01-07T04:23:39;31.45;;;17.88;;
72924;SDS011;61070;50.794;7.054;2024-01-07T04:24:43;30.70;;;15.13;;
72924;SDS011;61070;50.794;7.054;2024-01-07T04:25:44;33.15;;;17.15;;
72924;SDS011;61070;50.794;7.054;2024-01-07T04:26:45;38.95;;;18.30;;
72924;SDS011;61070;50.794;7.054;2024-01-07T04:27:45;28.15;;;16.67;;
72924;SDS011;61070;50.794;7.054;2024-01-07T04:28:45;31.08;;;17.15;;
72924;SDS011;61070;50.794;7.054;2024-01-07T04:29:45;35.25;;;17.08;;
72924;SDS011;61070;50.794;7.054;2024-01-07T04:30:46;32.47;;;18.00;;
72924;SDS011;61070;50.794;7.054;2024-01-07T04:31:48;35.03;;;18.50;;
72924;SDS011;61070;50.794;7.054;2024-01-07T04:32:49;32.92;;;17.70;;
72924;SDS011;61070;50.794;7.054;2024-01-07T04:33:49;34.58;;;18.58;;
72924;SDS011;61070;50.794;7.054;2024-01-07T04:34:49;34.05;;;18.80;;
72924;SDS011;61070;50.794;7.054;2024-01-07T04:35:49;35.03;;;17.58;;
72924;SDS011;61070;50.794;7.054;2024-01-07T04:36:50;34.85;;;19.42;;
72924;SDS011;61070;50.794;7.054;2024-01-07T04:37:50;35.10;;;18.30;;
72924;SDS011;61070;50.794;7.054;2024-01-07T04:38:51;33.50;;;17.77;;
72924;SDS011;61070;50.794;7.054;2024-01-07T04:39:51;31.58;;;17.40;;
72924;SDS011;61070;50.794;7.054;2024-01-07T04:40:51;28.80;;;17.63;;
72924;SDS011;61070;50.794;7.054;2024-01-07T04:41:52;32.35;;;17.08;;
72924;SDS011;61070;50.794;7.054;2024-01-07T04:42:52;37.58;;;18.48;;
72924;SDS011;61070;50.794;7.054;2024-01-07T04:43:52;32.08;;;17.13;;
72924;SDS011;61070;50.794;7.054;2024-01-07T04:44:53;35.42;;;17.15;;
72924;SDS011;61070;50.794;7.054;2024-01-07T04:45:53;29.95;;;16.08;;
72924;SDS011;61070;50.794;7.054;2024-01-07T04:46:53;34.80;;;17.25;;
72924;SDS011;61070;50.794;7.054;2024-01-07T04:47:53;29.05;;;16.55;;
72924;SDS011;61070;50.794;7.054;2024-01-07T04:48:54;34.88;;;17.58;;
72924;SDS011;61070;50.794;7.054;2024-01-07T04:49:54;32.38;;;15.75;;
72924;SDS011;61070;50.794;7.054;2024-01-07T04:50:54;31.20;;;16.35;;
72924;SDS011;61070;50.794;7.054;2024-01-07T04:51:55;27.83;;;15.57;;
72924;SDS011;61070;50.794;7.054;2024-01-07T04:52:55;32.15;;;15.77;;
72924;SDS011;61070;50.794;7.054;2024-01-07T04:53:55;31.63;;;16.42;;
72924;SDS011;61070;50.794;7.054;2024-01-07T04:54:56;29.98;;;14.75;;
72924;SDS011;61070;50.794;7.054;2024-01-07T04:55:56;30.23;;;15.90;;
72924;SDS011;61070;50.794;7.054;2024-01-07T04:56:56;31.77;;;15.50;;
72924;SDS011;61070;50.794;7.054;2024-01-07T04:57:56;33.03;;;15.63;;
72924;SDS011;61070;50.794;7.054;2024-01-07T04:58:57;31.63;;;16.88;;
72924;SDS011;61070;50.794;7.054;2024-01-07T04:59:57;28.42;;;16.25;;
72924;SDS011;61070;50.794;7.054;2024-01-07T05:00:57;28.30;;;15.85;;
72924;SDS011;61070;50.794;7.054;2024-01-07T05:01:58;31.95;;;16.17;;
72924;SDS011;61070;50.794;7.054;2024-01-07T05:02:58;31.08;;;15.65;;
72924;SDS011;61070;50.794;7.054;2024-01-07T05:03:58;27.02;;;14.77;;
72924;SDS011;61070;50.794;7.054;2024-01-07T05:04:59;28.85;;;14.48;;
72924;SDS011;61070;50.794;7.054;2024-01-07T05:05:59;31.30;;;15.93;;
72924;SDS011;61070;50.794;7.054;2024-01-07T05:06:59;28.52;;;15.75;;
72924;SDS011;61070;50.794;7.054;2024-01-07T05:08:00;27.92;;;14.20;;
72924;SDS011;61070;50.794;7.054;2024-01-07T05:09:00;34.05;;;15.57;;
72924;SDS011;61070;50.794;7.054;2024-01-07T05:10:00;28.05;;;16.27;;
72924;SDS011;61070;50.794;7.054;2024-01-07T05:11:01;30.67;;;15.45;;
72924;SDS011;61070;50.794;7.054;2024-01-07T05:12:01;32.03;;;15.15;;
72924;SDS011;61070;50.794;7.054;2024-01-07T05:13:01;28.17;;;14.68;;
72924;SDS011;61070;50.794;7.054;2024-01-07T05:14:06;27.90;;;14.45;;
72924;SDS011;61070;50.794;7.054;2024-01-07T05:15:07;31.02;;;14.73;;
72924;SDS011;61070;50.794;7.054;2024-01-07T05:16:07;28.98;;;14.60;;
72924;SDS011;61070;50.794;7.054;2024-01-07T05:17:08;30.50;;;14.93;;
72924;SDS011;61070;50.794;7.054;2024-01-07T05:18:08;31.35;;;14.60;;
72924;SDS011;61070;50.794;7.054;2024-01-07T05:19:09;28.63;;;14.02;;
72924;SDS011;61070;50.794;7.054;2024-01-07T05:20:10;27.48;;;15.05;;
72924;SDS011;61070;50.794;7.054;2024-01-07T05:21:10;30.27;;;14.27;;
72924;SDS011;61070;50.794;7.054;2024-01-07T05:22:11;28.83;;;15.38;;
72924;SDS011;61070;50.794;7.054;2024-01-07T05:23:11;26.88;;;14.75;;
72924;SDS011;61070;50.794;7.054;2024-01-07T05:24:11;27.10;;;13.32;;
72924;SDS011;61070;50.794;7.054;2024-01-07T05:25:11;23.40;;;13.35;;
72924;SDS011;61070;50.794;7.054;2024-01-07T05:26:12;27.23;;;13.55;;
72924;SDS011;61070;50.794;7.054;2024-01-07T05:27:12;28.85;;;14.43;;
72924;SDS011;61070;50.794;7.054;2024-01-07T05:28:12;28.02;;;15.05;;
72924;SDS011;61070;50.794;7.054;2024-01-07T05:29:13;26.70;;;14.40;;
72924;SDS011;61070;50.794;7.054;2024-01-07T05:30:13;28.63;;;13.70;;
72924;SDS011;61070;50.794;7.054;2024-01-07T05:31:14;24.75;;;13.88;;
72924;SDS011;61070;50.794;7.054;2024-01-07T05:32:15;31.17;;;14.57;;
72924;SDS011;61070;50.794;7.054;2024-01-07T05:33:16;26.98;;;14.40;;
72924;SDS011;61070;50.794;7.054;2024-01-07T05:34:16;27.35;;;15.10;;
72924;SDS011;61070;50.794;7.054;2024-01-07T05:35:16;28.42;;;14.93;;
72924;SDS011;61070;50.794;7.054;2024-01-07T05:36:16;26.23;;;13.15;;
72924;SDS011;61070;50.794;7.054;2024-01-07T05:37:17;29.50;;;14.75;;
72924;SDS011;61070;50.794;7.054;2024-01-07T05:38:17;30.95;;;15.00;;
72924;SDS011;61070;50.794;7.054;2024-01-07T05:39:17;29.42;;;14.63;;
72924;SDS011;61070;50.794;7.054;2024-01-07T05:40:18;33.65;;;16.60;;
72924;SDS011;61070;50.794;7.054;2024-01-07T05:41:18;33.42;;;16.35;;
72924;SDS011;61070;50.794;7.054;2024-01-07T05:42:18;34.67;;;16.67;;
72924;SDS011;61070;50.794;7.054;2024-01-07T05:43:19;32.53;;;16.08;;
72924;SDS011;61070;50.794;7.054;2024-01-07T05:44:20;36.90;;;18.38;;
72924;SDS011;61070;50.794;7.054;2024-01-07T05:45:20;35.95;;;17.73;;
72924;SDS011;61070;50.794;7.054;2024-01-07T05:46:20;37.08;;;17.58;;
72924;SDS011;61070;50.794;7.054;2024-01-07T05:47:20;36.33;;;17.40;;
72924;SDS011;61070;50.794;7.054;2024-01-07T05:48:21;34.30;;;17.27;;
72924;SDS011;61070;50.794;7.054;2024-01-07T05:49:22;34.97;;;18.23;;
72924;SDS011;61070;50.794;7.054;2024-01-07T05:50:22;34.70;;;18.38;;
72924;SDS011;61070;50.794;7.054;2024-01-07T05:51:22;36.45;;;18.80;;
72924;SDS011;61070;50.794;7.054;2024-01-07T05:52:23;38.80;;;18.42;;
72924;SDS011;61070;50.794;7.054;2024-01-07T05:53:24;37.88;;;19.05;;
72924;SDS011;61070;50.794;7.054;2024-01-07T05:54:24;40.60;;;18.73;;